KHYS

Hays Regional Airport

Hays, Kansas, USA
METAR KHYS 151256Z AUTO 28006KT 10SM CLR M07/M09 A3017 RMK AO2 SLP240 T10721089 FZRANO
Observed Flight Rules
Dec-15 @ 12:56 UTC (55 minutes ago) Visual Flight Rules
Wind Visibility Clouds
280° at 6 knots 10 miles
  • Clear skies
Temperatures Readings
Current -7°C / 19°F
Dewpoint -9°C / 16°F
Humidity 86%
Altimeter 30.17" Hg
Pressure 1024 hPa
Elevation 609
METAR KHYS 151256Z AUTO 28006KT 10SM CLR M07/M09 A3017 RMK AO2 SLP240 T10721089 FZRANO
Observed Flight Rules
Dec-15 @ 12:56 UTC
(55 minutes ago)
VFR
Wind Visibility
280° at 6 knots 10 miles
Clouds
  • Clear skies
Temperature Dewpoint
-7°C / 19°F -9°C / 16°F
Humidity Altimeter Pressure
86% 30.17" Hg 1024 hPa